Norton, KS

12:04 AM CDT on May 29, 2015 (GMT -0500)
McCook Municipal | | Change Station
CLOSE
Current Station
Airport
Location: McCook,
Elevation: 2579 ft
Nearby Weather Stations

Elev 2579 ft 40.20 °N, 100.59 °W | Updated 11 minutes ago

Clear
Clear
56 °F
Feels Like 56 °F
N
9
Wind Variable Wind from SSW

Today
High -- | Low -- °F
--% Chance of Precip.
Yesterday
High -- | Low -- °F
Precip. -- in
6:14 AM 8:59 PM
Waxing Gibbous, 81% visible
Pressure 29.91 in
Visibility 10.0 miles
Clouds Clear
Dew Point 53 °F
Humidity 90%
Rainfall 0.27 in
Snow Depth Not available.
UV 0 out of 12
Pollen 8.00 out of 12
Air Quality Not available.
Flu Activity No Activity
METAR KMCK 290453Z AUTO 21008KT 10SM CLR 13/12 A2995 RMK AO2 SLP128 T01330117

More Conditions Fewer Conditions

Pressure 29.91 in
Visibility 10.0 miles
Clouds Clear
Dew Point 53 °F
Humidity 90%
Rainfall 0.27 in
Snow Depth Not available.
UV 0 out of 12
Pollen 8.00 out of 12
Air Quality Not available.
Flu Activity No Activity
METAR KMCK 290453Z AUTO 21008KT 10SM CLR 13/12 A2995 RMK AO2 SLP128 T01330117

More Conditions Fewer Conditions

10-Day Weather Forecast

Almanac

Astronomy

May. 29, 2015 Rise Set
Actual Time
Civil Twilight
Nautical Twilight
Astronomical Twilight
Moon
Length of Visible Light
Length of Day
Tomorrow will be .
, % of the Moon is Illuminated

Today's Extremes

State Highs State Lows

Community

WunderPhotos

Upload Photos

1,825,211 photos uploaded!

WunderBlogs® & News

Nearby

Air Quality

  Air Quality AQ Index Pollutant
Not available.

Snow Depth

Station Depth Elevation

Earthquake Activity

City Distance Mag. Time & Date
Minimum magnitude displayed is 2.5.

Coastal Water Temperatures

Place Temperature

Stations

Nearby Weather Stations

Station Location Temp. Windchill Dew Point Humidity Wind Precip. Elev Updated Type